sensor_id;sensor_type;location;lat;lon;timestamp;P1;durP1;ratioP1;P2;durP2;ratioP2
14125;SDS011;7141;49.484;11.242;2022-09-27T00:02:18;4.50;;;2.33;;
14125;SDS011;7141;49.484;11.242;2022-09-27T00:04:44;5.50;;;2.37;;
14125;SDS011;7141;49.484;11.242;2022-09-27T00:07:10;5.13;;;2.73;;
14125;SDS011;7141;49.484;11.242;2022-09-27T00:09:36;3.10;;;2.40;;
14125;SDS011;7141;49.484;11.242;2022-09-27T00:12:03;6.20;;;2.50;;
14125;SDS011;7141;49.484;11.242;2022-09-27T00:14:29;5.27;;;2.80;;
14125;SDS011;7141;49.484;11.242;2022-09-27T00:16:55;4.13;;;2.80;;
14125;SDS011;7141;49.484;11.242;2022-09-27T00:19:21;5.00;;;2.90;;
14125;SDS011;7141;49.484;11.242;2022-09-27T00:21:49;7.47;;;3.10;;
14125;SDS011;7141;49.484;11.242;2022-09-27T00:24:17;7.53;;;3.03;;
14125;SDS011;7141;49.484;11.242;2022-09-27T00:26:44;3.60;;;2.70;;
14125;SDS011;7141;49.484;11.242;2022-09-27T00:29:11;3.17;;;2.80;;
14125;SDS011;7141;49.484;11.242;2022-09-27T00:31:37;5.30;;;3.00;;
14125;SDS011;7141;49.484;11.242;2022-09-27T00:34:04;3.83;;;3.27;;
14125;SDS011;7141;49.484;11.242;2022-09-27T00:36:31;4.73;;;2.93;;
14125;SDS011;7141;49.484;11.242;2022-09-27T00:38:57;3.63;;;3.17;;
14125;SDS011;7141;49.484;11.242;2022-09-27T00:41:31;3.00;;;2.70;;
14125;SDS011;7141;49.484;11.242;2022-09-27T00:43:58;5.50;;;2.90;;
14125;SDS011;7141;49.484;11.242;2022-09-27T00:46:38;6.37;;;2.97;;
14125;SDS011;7141;49.484;11.242;2022-09-27T00:51:40;3.83;;;3.10;;
14125;SDS011;7141;49.484;11.242;2022-09-27T00:54:08;5.73;;;3.40;;
14125;SDS011;7141;49.484;11.242;2022-09-27T00:56:35;5.20;;;2.97;;
14125;SDS011;7141;49.484;11.242;2022-09-27T00:59:06;4.83;;;2.97;;
14125;SDS011;7141;49.484;11.242;2022-09-27T01:01:33;7.30;;;3.10;;
14125;SDS011;7141;49.484;11.242;2022-09-27T01:04:05;4.37;;;3.30;;
14125;SDS011;7141;49.484;11.242;2022-09-27T01:06:32;5.53;;;3.30;;
14125;SDS011;7141;49.484;11.242;2022-09-27T01:08:58;5.40;;;3.30;;
14125;SDS011;7141;49.484;11.242;2022-09-27T01:11:31;7.53;;;3.60;;
14125;SDS011;7141;49.484;11.242;2022-09-27T01:16:33;4.43;;;3.27;;
14125;SDS011;7141;49.484;11.242;2022-09-27T01:32:38;4.50;;;2.83;;
14125;SDS011;7141;49.484;11.242;2022-09-27T01:35:18;3.33;;;2.60;;
14125;SDS011;7141;49.484;11.242;2022-09-27T01:45:31;4.60;;;2.70;;
14125;SDS011;7141;49.484;11.242;2022-09-27T01:48:03;4.57;;;2.43;;
14125;SDS011;7141;49.484;11.242;2022-09-27T01:50:43;3.50;;;2.53;;
14125;SDS011;7141;49.484;11.242;2022-09-27T01:53:15;4.70;;;2.43;;
14125;SDS011;7141;49.484;11.242;2022-09-27T01:55:43;4.80;;;2.17;;
14125;SDS011;7141;49.484;11.242;2022-09-27T01:58:14;2.83;;;1.93;;
14125;SDS011;7141;49.484;11.242;2022-09-27T02:00:42;6.03;;;1.83;;
14125;SDS011;7141;49.484;11.242;2022-09-27T02:03:10;3.43;;;1.70;;
14125;SDS011;7141;49.484;11.242;2022-09-27T02:08:41;2.33;;;2.00;;
14125;SDS011;7141;49.484;11.242;2022-09-27T02:11:09;3.57;;;1.60;;
14125;SDS011;7141;49.484;11.242;2022-09-27T02:13:47;3.13;;;2.00;;
14125;SDS011;7141;49.484;11.242;2022-09-27T02:16:31;4.93;;;1.70;;
14125;SDS011;7141;49.484;11.242;2022-09-27T02:19:06;2.93;;;1.73;;
14125;SDS011;7141;49.484;11.242;2022-09-27T02:22:09;1.70;;;1.50;;
14125;SDS011;7141;49.484;11.242;2022-09-27T02:24:31;6.70;;;1.70;;
14125;SDS011;7141;49.484;11.242;2022-09-27T02:27:02;3.93;;;1.60;;
14125;SDS011;7141;49.484;11.242;2022-09-27T02:29:36;1.80;;;1.70;;
14125;SDS011;7141;49.484;11.242;2022-09-27T02:32:05;3.67;;;1.87;;
14125;SDS011;7141;49.484;11.242;2022-09-27T02:34:31;3.87;;;1.60;;
14125;SDS011;7141;49.484;11.242;2022-09-27T02:36:59;4.10;;;1.70;;
14125;SDS011;7141;49.484;11.242;2022-09-27T02:39:25;1.90;;;1.53;;
14125;SDS011;7141;49.484;11.242;2022-09-27T02:41:51;5.87;;;2.00;;
14125;SDS011;7141;49.484;11.242;2022-09-27T02:44:22;6.57;;;5.60;;
14125;SDS011;7141;49.484;11.242;2022-09-27T02:49:28;3.77;;;1.97;;
14125;SDS011;7141;49.484;11.242;2022-09-27T02:52:11;6.33;;;3.33;;
14125;SDS011;7141;49.484;11.242;2022-09-27T02:54:46;4.13;;;3.00;;
14125;SDS011;7141;49.484;11.242;2022-09-27T03:00:05;5.47;;;3.47;;
14125;SDS011;7141;49.484;11.242;2022-09-27T03:05:22;3.60;;;2.23;;
14125;SDS011;7141;49.484;11.242;2022-09-27T03:07:49;2.30;;;2.07;;
14125;SDS011;7141;49.484;11.242;2022-09-27T03:10:20;4.43;;;2.80;;
14125;SDS011;7141;49.484;11.242;2022-09-27T03:12:47;8.33;;;3.97;;
14125;SDS011;7141;49.484;11.242;2022-09-27T03:15:14;7.37;;;3.20;;
14125;SDS011;7141;49.484;11.242;2022-09-27T03:17:40;11.90;;;7.93;;
14125;SDS011;7141;49.484;11.242;2022-09-27T03:20:06;6.30;;;4.40;;
14125;SDS011;7141;49.484;11.242;2022-09-27T03:22:33;8.17;;;5.37;;
14125;SDS011;7141;49.484;11.242;2022-09-27T03:24:59;5.33;;;3.63;;
14125;SDS011;7141;49.484;11.242;2022-09-27T03:27:25;3.97;;;2.67;;
14125;SDS011;7141;49.484;11.242;2022-09-27T03:29:51;4.43;;;2.83;;
14125;SDS011;7141;49.484;11.242;2022-09-27T03:32:17;3.47;;;2.50;;
14125;SDS011;7141;49.484;11.242;2022-09-27T03:34:43;3.50;;;2.60;;
14125;SDS011;7141;49.484;11.242;2022-09-27T03:37:09;4.57;;;3.80;;
14125;SDS011;7141;49.484;11.242;2022-09-27T03:39:35;3.30;;;2.30;;
14125;SDS011;7141;49.484;11.242;2022-09-27T03:42:01;3.80;;;2.70;;
14125;SDS011;7141;49.484;11.242;2022-09-27T03:44:27;2.87;;;2.20;;
14125;SDS011;7141;49.484;11.242;2022-09-27T03:46:53;3.07;;;2.20;;
14125;SDS011;7141;49.484;11.242;2022-09-27T03:49:19;4.00;;;2.13;;
14125;SDS011;7141;49.484;11.242;2022-09-27T03:51:45;5.23;;;2.10;;
14125;SDS011;7141;49.484;11.242;2022-09-27T03:54:11;3.07;;;2.10;;
14125;SDS011;7141;49.484;11.242;2022-09-27T03:56:37;4.63;;;2.60;;
14125;SDS011;7141;49.484;11.242;2022-09-27T03:59:03;7.13;;;2.77;;
14125;SDS011;7141;49.484;11.242;2022-09-27T04:01:29;3.57;;;2.20;;
14125;SDS011;7141;49.484;11.242;2022-09-27T04:03:55;4.40;;;2.40;;
14125;SDS011;7141;49.484;11.242;2022-09-27T04:06:21;5.17;;;2.80;;
14125;SDS011;7141;49.484;11.242;2022-09-27T04:08:47;3.10;;;2.43;;
14125;SDS011;7141;49.484;11.242;2022-09-27T04:11:14;5.37;;;2.30;;
14125;SDS011;7141;49.484;11.242;2022-09-27T04:13:41;3.30;;;1.80;;
14125;SDS011;7141;49.484;11.242;2022-09-27T04:16:08;2.23;;;1.80;;
14125;SDS011;7141;49.484;11.242;2022-09-27T04:18:34;4.33;;;3.03;;
14125;SDS011;7141;49.484;11.242;2022-09-27T04:21:00;3.57;;;2.47;;
14125;SDS011;7141;49.484;11.242;2022-09-27T04:23:27;3.70;;;1.70;;
14125;SDS011;7141;49.484;11.242;2022-09-27T04:25:53;3.57;;;1.97;;
14125;SDS011;7141;49.484;11.242;2022-09-27T04:28:19;4.67;;;2.23;;
14125;SDS011;7141;49.484;11.242;2022-09-27T04:30:46;4.47;;;2.13;;
14125;SDS011;7141;49.484;11.242;2022-09-27T04:33:13;5.23;;;2.20;;
14125;SDS011;7141;49.484;11.242;2022-09-27T04:35:39;4.07;;;2.47;;
14125;SDS011;7141;49.484;11.242;2022-09-27T04:38:24;3.47;;;2.87;;
14125;SDS011;7141;49.484;11.242;2022-09-27T04:40:50;2.97;;;2.00;;
14125;SDS011;7141;49.484;11.242;2022-09-27T04:43:16;1.87;;;1.60;;
14125;SDS011;7141;49.484;11.242;2022-09-27T04:45:42;5.60;;;1.73;;
14125;SDS011;7141;49.484;11.242;2022-09-27T04:48:08;3.60;;;1.97;;
14125;SDS011;7141;49.484;11.242;2022-09-27T04:50:34;2.80;;;1.53;;
14125;SDS011;7141;49.484;11.242;2022-09-27T04:53:01;3.03;;;2.10;;
14125;SDS011;7141;49.484;11.242;2022-09-27T04:55:26;4.00;;;1.83;;
14125;SDS011;7141;49.484;11.242;2022-09-27T04:57:52;3.33;;;1.67;;
14125;SDS011;7141;49.484;11.242;2022-09-27T05:00:19;6.63;;;1.83;;
14125;SDS011;7141;49.484;11.242;2022-09-27T05:02:45;1.43;;;1.33;;
14125;SDS011;7141;49.484;11.242;2022-09-27T05:05:12;4.57;;;1.77;;
14125;SDS011;7141;49.484;11.242;2022-09-27T05:07:38;4.27;;;1.90;;
14125;SDS011;7141;49.484;11.242;2022-09-27T05:10:05;4.57;;;1.90;;
14125;SDS011;7141;49.484;11.242;2022-09-27T05:12:32;5.13;;;1.70;;
14125;SDS011;7141;49.484;11.242;2022-09-27T05:14:58;6.07;;;1.93;;
14125;SDS011;7141;49.484;11.242;2022-09-27T05:17:24;5.90;;;1.83;;
14125;SDS011;7141;49.484;11.242;2022-09-27T05:19:50;4.93;;;2.10;;
14125;SDS011;7141;49.484;11.242;2022-09-27T05:22:16;5.43;;;1.80;;
14125;SDS011;7141;49.484;11.242;2022-09-27T05:24:43;2.93;;;1.80;;
14125;SDS011;7141;49.484;11.242;2022-09-27T05:29:36;5.80;;;2.27;;
14125;SDS011;7141;49.484;11.242;2022-09-27T05:32:02;7.07;;;2.17;;
14125;SDS011;7141;49.484;11.242;2022-09-27T05:34:28;6.67;;;2.50;;
14125;SDS011;7141;49.484;11.242;2022-09-27T05:36:56;6.50;;;2.20;;
14125;SDS011;7141;49.484;11.242;2022-09-27T05:39:22;9.73;;;2.90;;
14125;SDS011;7141;49.484;11.242;2022-09-27T05:41:48;8.53;;;3.00;;
14125;SDS011;7141;49.484;11.242;2022-09-27T05:44:15;9.43;;;3.20;;
14125;SDS011;7141;49.484;11.242;2022-09-27T05:46:41;14.67;;;3.73;;
14125;SDS011;7141;49.484;11.242;2022-09-27T05:49:07;10.97;;;4.03;;
14125;SDS011;7141;49.484;11.242;2022-09-27T05:51:33;16.70;;;4.33;;
14125;SDS011;7141;49.484;11.242;2022-09-27T05:53:59;10.07;;;2.67;;
14125;SDS011;7141;49.484;11.242;2022-09-27T05:56:25;10.60;;;3.37;;
14125;SDS011;7141;49.484;11.242;2022-09-27T05:58:51;6.20;;;2.07;;
14125;SDS011;7141;49.484;11.242;2022-09-27T06:01:17;7.70;;;2.67;;
14125;SDS011;7141;49.484;11.242;2022-09-27T06:03:43;6.30;;;2.37;;
14125;SDS011;7141;49.484;11.242;2022-09-27T06:06:10;7.17;;;2.50;;
14125;SDS011;7141;49.484;11.242;2022-09-27T06:08:36;7.53;;;2.37;;
14125;SDS011;7141;49.484;11.242;2022-09-27T06:11:04;5.33;;;2.70;;
14125;SDS011;7141;49.484;11.242;2022-09-27T06:13:31;7.73;;;2.50;;
14125;SDS011;7141;49.484;11.242;2022-09-27T06:16:15;5.03;;;2.67;;
14125;SDS011;7141;49.484;11.242;2022-09-27T06:18:41;6.80;;;3.03;;
14125;SDS011;7141;49.484;11.242;2022-09-27T06:21:07;6.87;;;2.50;;
14125;SDS011;7141;49.484;11.242;2022-09-27T06:23:33;5.50;;;3.03;;
14125;SDS011;7141;49.484;11.242;2022-09-27T06:26:00;6.00;;;2.70;;
14125;SDS011;7141;49.484;11.242;2022-09-27T06:28:27;6.80;;;2.60;;
14125;SDS011;7141;49.484;11.242;2022-09-27T06:30:54;4.40;;;2.53;;
14125;SDS011;7141;49.484;11.242;2022-09-27T06:33:20;6.03;;;2.50;;
14125;SDS011;7141;49.484;11.242;2022-09-27T06:35:46;5.30;;;2.47;;
14125;SDS011;7141;49.484;11.242;2022-09-27T06:38:15;5.83;;;2.20;;
14125;SDS011;7141;49.484;11.242;2022-09-27T06:40:44;3.53;;;2.13;;
14125;SDS011;7141;49.484;11.242;2022-09-27T06:43:11;4.63;;;2.27;;
14125;SDS011;7141;49.484;11.242;2022-09-27T06:45:38;9.70;;;2.90;;
14125;SDS011;7141;49.484;11.242;2022-09-27T06:48:05;14.60;;;3.87;;
14125;SDS011;7141;49.484;11.242;2022-09-27T06:50:32;11.47;;;3.00;;
14125;SDS011;7141;49.484;11.242;2022-09-27T06:52:59;6.43;;;2.77;;
14125;SDS011;7141;49.484;11.242;2022-09-27T06:55:25;7.27;;;2.87;;
14125;SDS011;7141;49.484;11.242;2022-09-27T06:57:55;6.27;;;2.27;;
14125;SDS011;7141;49.484;11.242;2022-09-27T07:00:40;5.13;;;2.10;;
14125;SDS011;7141;49.484;11.242;2022-09-27T07:03:07;6.73;;;2.60;;
14125;SDS011;7141;49.484;11.242;2022-09-27T07:05:33;8.83;;;2.93;;
14125;SDS011;7141;49.484;11.242;2022-09-27T07:08:00;9.23;;;2.93;;
14125;SDS011;7141;49.484;11.242;2022-09-27T07:10:27;7.20;;;2.20;;
14125;SDS011;7141;49.484;11.242;2022-09-27T07:12:54;3.73;;;1.90;;
14125;SDS011;7141;49.484;11.242;2022-09-27T07:15:20;2.63;;;1.60;;
14125;SDS011;7141;49.484;11.242;2022-09-27T07:17:56;1.63;;;1.43;;
14125;SDS011;7141;49.484;11.242;2022-09-27T07:20:23;2.57;;;1.80;;
14125;SDS011;7141;49.484;11.242;2022-09-27T07:22:49;5.00;;;1.67;;
14125;SDS011;7141;49.484;11.242;2022-09-27T07:25:15;2.57;;;1.53;;
14125;SDS011;7141;49.484;11.242;2022-09-27T07:27:41;0.90;;;0.90;;
14125;SDS011;7141;49.484;11.242;2022-09-27T07:30:08;2.23;;;1.27;;
14125;SDS011;7141;49.484;11.242;2022-09-27T07:32:34;2.30;;;1.20;;
14125;SDS011;7141;49.484;11.242;2022-09-27T07:35:01;2.10;;;1.00;;
14125;SDS011;7141;49.484;11.242;2022-09-27T07:37:27;0.90;;;0.90;;
14125;SDS011;7141;49.484;11.242;2022-09-27T07:39:53;1.60;;;1.10;;
14125;SDS011;7141;49.484;11.242;2022-09-27T07:42:19;1.10;;;1.00;;
14125;SDS011;7141;49.484;11.242;2022-09-27T07:44:45;3.80;;;1.37;;
14125;SDS011;7141;49.484;11.242;2022-09-27T07:47:11;2.43;;;1.37;;
14125;SDS011;7141;49.484;11.242;2022-09-27T07:49:37;1.63;;;1.23;;
14125;SDS011;7141;49.484;11.242;2022-09-27T07:52:03;1.90;;;1.20;;
14125;SDS011;7141;49.484;11.242;2022-09-27T07:54:29;1.40;;;1.20;;
14125;SDS011;7141;49.484;11.242;2022-09-27T07:56:55;4.97;;;1.30;;
14125;SDS011;7141;49.484;11.242;2022-09-27T07:59:21;2.60;;;1.20;;
14125;SDS011;7141;49.484;11.242;2022-09-27T08:01:47;1.13;;;1.00;;
14125;SDS011;7141;49.484;11.242;2022-09-27T08:04:13;4.30;;;1.37;;
14125;SDS011;7141;49.484;11.242;2022-09-27T08:06:39;2.13;;;1.20;;
14125;SDS011;7141;49.484;11.242;2022-09-27T08:09:06;1.57;;;1.10;;
14125;SDS011;7141;49.484;11.242;2022-09-27T08:11:33;1.27;;;0.97;;
14125;SDS011;7141;49.484;11.242;2022-09-27T08:14:00;1.57;;;1.10;;
14125;SDS011;7141;49.484;11.242;2022-09-27T08:16:28;3.50;;;1.00;;
14125;SDS011;7141;49.484;11.242;2022-09-27T08:18:54;1.57;;;1.10;;
14125;SDS011;7141;49.484;11.242;2022-09-27T08:21:20;1.87;;;1.13;;
14125;SDS011;7141;49.484;11.242;2022-09-27T08:23:46;1.73;;;1.20;;
14125;SDS011;7141;49.484;11.242;2022-09-27T08:26:12;1.83;;;1.20;;
14125;SDS011;7141;49.484;11.242;2022-09-27T08:28:38;1.50;;;1.20;;
14125;SDS011;7141;49.484;11.242;2022-09-27T08:31:04;1.13;;;1.03;;
14125;SDS011;7141;49.484;11.242;2022-09-27T08:33:30;1.40;;;1.20;;
14125;SDS011;7141;49.484;11.242;2022-09-27T08:35:56;2.23;;;1.20;;
14125;SDS011;7141;49.484;11.242;2022-09-27T08:38:22;1.40;;;1.20;;
14125;SDS011;7141;49.484;11.242;2022-09-27T08:40:55;2.23;;;1.40;;
14125;SDS011;7141;49.484;11.242;2022-09-27T08:48:33;1.80;;;1.10;;
14125;SDS011;7141;49.484;11.242;2022-09-27T08:51:00;4.00;;;1.53;;
14125;SDS011;7141;49.484;11.242;2022-09-27T08:55:53;1.10;;;1.00;;
14125;SDS011;7141;49.484;11.242;2022-09-27T08:58:24;0.60;;;0.60;;
14125;SDS011;7141;49.484;11.242;2022-09-27T09:00:50;1.57;;;1.00;;
14125;SDS011;7141;49.484;11.242;2022-09-27T09:03:19;0.97;;;0.80;;
14125;SDS011;7141;49.484;11.242;2022-09-27T09:05:51;2.10;;;0.93;;
14125;SDS011;7141;49.484;11.242;2022-09-27T09:08:24;0.83;;;0.83;;
14125;SDS011;7141;49.484;11.242;2022-09-27T09:10:56;1.30;;;0.83;;
14125;SDS011;7141;49.484;11.242;2022-09-27T09:19:07;2.10;;;1.00;;
14125;SDS011;7141;49.484;11.242;2022-09-27T09:21:42;1.00;;;0.73;;
14125;SDS011;7141;49.484;11.242;2022-09-27T09:29:56;1.00;;;0.80;;
14125;SDS011;7141;49.484;11.242;2022-09-27T09:35:16;0.90;;;0.80;;
14125;SDS011;7141;49.484;11.242;2022-09-27T09:37:44;2.70;;;0.80;;
14125;SDS011;7141;49.484;11.242;2022-09-27T09:40:23;1.77;;;0.87;;
14125;SDS011;7141;49.484;11.242;2022-09-27T09:42:56;4.00;;;1.10;;
14125;SDS011;7141;49.484;11.242;2022-09-27T09:45:32;0.93;;;0.90;;
14125;SDS011;7141;49.484;11.242;2022-09-27T09:50:45;1.00;;;0.90;;
14125;SDS011;7141;49.484;11.242;2022-09-27T09:55:38;2.23;;;1.40;;
14125;SDS011;7141;49.484;11.242;2022-09-27T10:00:35;2.33;;;1.50;;
14125;SDS011;7141;49.484;11.242;2022-09-27T10:03:02;2.27;;;1.10;;
14125;SDS011;7141;49.484;11.242;2022-09-27T10:05:28;3.53;;;1.07;;
14125;SDS011;7141;49.484;11.242;2022-09-27T10:07:56;1.77;;;1.20;;
14125;SDS011;7141;49.484;11.242;2022-09-27T10:10:23;1.17;;;1.00;;
14125;SDS011;7141;49.484;11.242;2022-09-27T10:12:49;1.53;;;1.00;;
14125;SDS011;7141;49.484;11.242;2022-09-27T10:15:19;1.33;;;1.17;;
14125;SDS011;7141;49.484;11.242;2022-09-27T10:17:50;2.37;;;1.30;;
14125;SDS011;7141;49.484;11.242;2022-09-27T10:20:20;4.57;;;1.30;;
14125;SDS011;7141;49.484;11.242;2022-09-27T10:22:48;2.80;;;1.50;;
14125;SDS011;7141;49.484;11.242;2022-09-27T10:25:19;2.00;;;1.40;;
14125;SDS011;7141;49.484;11.242;2022-09-27T10:27:46;1.17;;;1.00;;
14125;SDS011;7141;49.484;11.242;2022-09-27T10:30:28;2.03;;;1.07;;
14125;SDS011;7141;49.484;11.242;2022-09-27T10:32:59;1.50;;;0.90;;
14125;SDS011;7141;49.484;11.242;2022-09-27T10:37:59;1.07;;;0.83;;
14125;SDS011;7141;49.484;11.242;2022-09-27T10:40:37;3.70;;;1.20;;
14125;SDS011;7141;49.484;11.242;2022-09-27T10:43:14;2.30;;;1.23;;
14125;SDS011;7141;49.484;11.242;2022-09-27T10:45:48;1.30;;;0.87;;
14125;SDS011;7141;49.484;11.242;2022-09-27T10:48:19;1.10;;;0.90;;
14125;SDS011;7141;49.484;11.242;2022-09-27T10:50:58;1.23;;;0.80;;
14125;SDS011;7141;49.484;11.242;2022-09-27T10:53:24;2.40;;;1.10;;
14125;SDS011;7141;49.484;11.242;2022-09-27T10:55:51;2.60;;;1.17;;
14125;SDS011;7141;49.484;11.242;2022-09-27T10:58:39;1.63;;;0.90;;
14125;SDS011;7141;49.484;11.242;2022-09-27T11:01:07;1.53;;;1.00;;
14125;SDS011;7141;49.484;11.242;2022-09-27T11:03:36;2.00;;;1.20;;
14125;SDS011;7141;49.484;11.242;2022-09-27T11:08:45;0.80;;;0.80;;
14125;SDS011;7141;49.484;11.242;2022-09-27T11:13:39;0.70;;;0.70;;
14125;SDS011;7141;49.484;11.242;2022-09-27T11:16:20;1.17;;;1.07;;
14125;SDS011;7141;49.484;11.242;2022-09-27T11:32:13;2.13;;;1.80;;
14125;SDS011;7141;49.484;11.242;2022-09-27T11:34:59;2.40;;;1.90;;
14125;SDS011;7141;49.484;11.242;2022-09-27T11:47:35;1.47;;;1.30;;
14125;SDS011;7141;49.484;11.242;2022-09-27T11:52:50;3.03;;;1.97;;
14125;SDS011;7141;49.484;11.242;2022-09-27T11:57:54;2.00;;;1.40;;
14125;SDS011;7141;49.484;11.242;2022-09-27T12:00:22;1.63;;;1.37;;
14125;SDS011;7141;49.484;11.242;2022-09-27T12:05:41;2.97;;;1.50;;
14125;SDS011;7141;49.484;11.242;2022-09-27T12:10:49;1.97;;;1.50;;
14125;SDS011;7141;49.484;11.242;2022-09-27T12:13:18;1.20;;;1.10;;
14125;SDS011;7141;49.484;11.242;2022-09-27T12:15:45;2.40;;;1.00;;
14125;SDS011;7141;49.484;11.242;2022-09-27T12:20:58;1.80;;;1.10;;
14125;SDS011;7141;49.484;11.242;2022-09-27T12:23:33;2.27;;;0.90;;
14125;SDS011;7141;49.484;11.242;2022-09-27T12:26:05;0.73;;;0.73;;
14125;SDS011;7141;49.484;11.242;2022-09-27T12:28:44;4.67;;;1.03;;
14125;SDS011;7141;49.484;11.242;2022-09-27T12:31:16;1.27;;;1.00;;
14125;SDS011;7141;49.484;11.242;2022-09-27T12:33:46;2.57;;;1.20;;
14125;SDS011;7141;49.484;11.242;2022-09-27T12:36:16;3.13;;;1.20;;
14125;SDS011;7141;49.484;11.242;2022-09-27T12:38:46;3.90;;;1.20;;
14125;SDS011;7141;49.484;11.242;2022-09-27T12:41:16;2.77;;;1.13;;
14125;SDS011;7141;49.484;11.242;2022-09-27T12:43:44;1.63;;;0.90;;
14125;SDS011;7141;49.484;11.242;2022-09-27T12:46:14;1.10;;;1.00;;
14125;SDS011;7141;49.484;11.242;2022-09-27T12:48:50;1.30;;;1.00;;
14125;SDS011;7141;49.484;11.242;2022-09-27T12:51:22;1.00;;;0.90;;
14125;SDS011;7141;49.484;11.242;2022-09-27T13:01:46;1.53;;;1.20;;
14125;SDS011;7141;49.484;11.242;2022-09-27T13:12:05;1.87;;;1.70;;
14125;SDS011;7141;49.484;11.242;2022-09-27T13:14:37;2.17;;;1.80;;
14125;SDS011;7141;49.484;11.242;2022-09-27T13:17:05;1.67;;;1.50;;
14125;SDS011;7141;49.484;11.242;2022-09-27T13:19:38;1.67;;;1.40;;
14125;SDS011;7141;49.484;11.242;2022-09-27T13:22:51;1.80;;;1.60;;
14125;SDS011;7141;49.484;11.242;2022-09-27T13:24:52;1.97;;;1.60;;
14125;SDS011;7141;49.484;11.242;2022-09-27T13:29:48;3.53;;;1.60;;
14125;SDS011;7141;49.484;11.242;2022-09-27T13:32:18;1.73;;;1.30;;
14125;SDS011;7141;49.484;11.242;2022-09-27T13:42:45;1.67;;;1.43;;
14125;SDS011;7141;49.484;11.242;2022-09-27T13:45:21;1.77;;;1.40;;
14125;SDS011;7141;49.484;11.242;2022-09-27T13:47:53;2.90;;;1.30;;
14125;SDS011;7141;49.484;11.242;2022-09-27T13:52:57;1.53;;;1.40;;
14125;SDS011;7141;49.484;11.242;2022-09-27T13:58:50;2.20;;;2.00;;
14125;SDS011;7141;49.484;11.242;2022-09-27T14:00:51;2.60;;;1.40;;
14125;SDS011;7141;49.484;11.242;2022-09-27T14:06:04;5.70;;;1.70;;
14125;SDS011;7141;49.484;11.242;2022-09-27T14:08:32;1.90;;;1.50;;
14125;SDS011;7141;49.484;11.242;2022-09-27T14:11:00;4.33;;;1.87;;
14125;SDS011;7141;49.484;11.242;2022-09-27T14:13:26;2.17;;;1.57;;
14125;SDS011;7141;49.484;11.242;2022-09-27T14:15:55;3.60;;;1.50;;
14125;SDS011;7141;49.484;11.242;2022-09-27T14:18:23;4.90;;;1.50;;
14125;SDS011;7141;49.484;11.242;2022-09-27T14:20:50;2.20;;;1.40;;
14125;SDS011;7141;49.484;11.242;2022-09-27T14:23:18;4.00;;;1.50;;
14125;SDS011;7141;49.484;11.242;2022-09-27T14:25:46;2.67;;;1.40;;
14125;SDS011;7141;49.484;11.242;2022-09-27T14:28:19;4.10;;;1.10;;
14125;SDS011;7141;49.484;11.242;2022-09-27T14:30:46;3.23;;;1.13;;
14125;SDS011;7141;49.484;11.242;2022-09-27T14:33:28;1.77;;;1.07;;
14125;SDS011;7141;49.484;11.242;2022-09-27T14:35:55;2.27;;;1.40;;
14125;SDS011;7141;49.484;11.242;2022-09-27T14:38:39;3.53;;;1.50;;
14125;SDS011;7141;49.484;11.242;2022-09-27T14:41:06;1.33;;;1.20;;
14125;SDS011;7141;49.484;11.242;2022-09-27T14:43:33;2.03;;;1.60;;
14125;SDS011;7141;49.484;11.242;2022-09-27T14:46:04;3.17;;;1.17;;
14125;SDS011;7141;49.484;11.242;2022-09-27T14:53:25;2.67;;;1.60;;
14125;SDS011;7141;49.484;11.242;2022-09-27T14:55:51;1.40;;;1.30;;
14125;SDS011;7141;49.484;11.242;2022-09-27T14:58:18;3.63;;;1.47;;
14125;SDS011;7141;49.484;11.242;2022-09-27T15:00:45;3.83;;;1.40;;
14125;SDS011;7141;49.484;11.242;2022-09-27T15:03:16;3.80;;;1.50;;
14125;SDS011;7141;49.484;11.242;2022-09-27T15:05:44;3.53;;;1.53;;
14125;SDS011;7141;49.484;11.242;2022-09-27T15:08:10;1.93;;;1.40;;
14125;SDS011;7141;49.484;11.242;2022-09-27T15:10:39;3.23;;;1.40;;
14125;SDS011;7141;49.484;11.242;2022-09-27T15:13:05;3.67;;;1.73;;
14125;SDS011;7141;49.484;11.242;2022-09-27T15:15:32;3.63;;;1.70;;
14125;SDS011;7141;49.484;11.242;2022-09-27T15:17:59;2.63;;;1.37;;
14125;SDS011;7141;49.484;11.242;2022-09-27T15:20:27;1.90;;;1.40;;
14125;SDS011;7141;49.484;11.242;2022-09-27T15:22:54;6.43;;;1.50;;
14125;SDS011;7141;49.484;11.242;2022-09-27T15:25:22;1.63;;;1.10;;
14125;SDS011;7141;49.484;11.242;2022-09-27T15:27:52;3.03;;;1.30;;
14125;SDS011;7141;49.484;11.242;2022-09-27T15:30:32;2.37;;;1.20;;
14125;SDS011;7141;49.484;11.242;2022-09-27T15:32:58;1.60;;;1.10;;
14125;SDS011;7141;49.484;11.242;2022-09-27T15:35:27;6.27;;;1.77;;
14125;SDS011;7141;49.484;11.242;2022-09-27T15:38:40;2.70;;;1.23;;
14125;SDS011;7141;49.484;11.242;2022-09-27T15:43:20;1.63;;;1.10;;
14125;SDS011;7141;49.484;11.242;2022-09-27T15:45:50;4.43;;;2.30;;
14125;SDS011;7141;49.484;11.242;2022-09-27T15:48:20;16.23;;;4.40;;
14125;SDS011;7141;49.484;11.242;2022-09-27T15:50:46;8.07;;;2.43;;
14125;SDS011;7141;49.484;11.242;2022-09-27T15:53:39;6.37;;;2.33;;
14125;SDS011;7141;49.484;11.242;2022-09-27T15:55:59;3.30;;;1.50;;
14125;SDS011;7141;49.484;11.242;2022-09-27T15:58:25;3.67;;;1.47;;
14125;SDS011;7141;49.484;11.242;2022-09-27T16:00:56;5.23;;;1.60;;
14125;SDS011;7141;49.484;11.242;2022-09-27T16:03:22;3.07;;;1.70;;
14125;SDS011;7141;49.484;11.242;2022-09-27T16:05:49;4.50;;;1.50;;
14125;SDS011;7141;49.484;11.242;2022-09-27T16:08:15;3.57;;;1.57;;
14125;SDS011;7141;49.484;11.242;2022-09-27T16:10:43;3.97;;;1.30;;
14125;SDS011;7141;49.484;11.242;2022-09-27T16:13:09;4.47;;;1.40;;
14125;SDS011;7141;49.484;11.242;2022-09-27T16:15:35;2.97;;;1.30;;
14125;SDS011;7141;49.484;11.242;2022-09-27T16:18:02;3.07;;;1.60;;
14125;SDS011;7141;49.484;11.242;2022-09-27T16:20:28;4.50;;;1.90;;
14125;SDS011;7141;49.484;11.242;2022-09-27T16:22:56;3.90;;;1.63;;
14125;SDS011;7141;49.484;11.242;2022-09-27T16:25:22;6.00;;;1.40;;
14125;SDS011;7141;49.484;11.242;2022-09-27T16:27:48;2.83;;;1.47;;
14125;SDS011;7141;49.484;11.242;2022-09-27T16:30:16;3.33;;;1.50;;
14125;SDS011;7141;49.484;11.242;2022-09-27T16:32:43;3.83;;;1.90;;
14125;SDS011;7141;49.484;11.242;2022-09-27T16:35:10;2.53;;;1.70;;
14125;SDS011;7141;49.484;11.242;2022-09-27T16:37:36;3.00;;;1.63;;
14125;SDS011;7141;49.484;11.242;2022-09-27T16:40:03;5.20;;;1.80;;
14125;SDS011;7141;49.484;11.242;2022-09-27T16:42:29;3.07;;;1.70;;
14125;SDS011;7141;49.484;11.242;2022-09-27T16:44:55;2.90;;;1.50;;
14125;SDS011;7141;49.484;11.242;2022-09-27T16:47:21;4.97;;;1.70;;
14125;SDS011;7141;49.484;11.242;2022-09-27T16:49:47;7.13;;;3.17;;
14125;SDS011;7141;49.484;11.242;2022-09-27T16:52:31;14.40;;;4.17;;
14125;SDS011;7141;49.484;11.242;2022-09-27T16:54:58;9.63;;;3.13;;
14125;SDS011;7141;49.484;11.242;2022-09-27T16:57:24;9.57;;;3.40;;
14125;SDS011;7141;49.484;11.242;2022-09-27T16:59:52;8.93;;;4.00;;
14125;SDS011;7141;49.484;11.242;2022-09-27T17:02:20;6.87;;;2.93;;
14125;SDS011;7141;49.484;11.242;2022-09-27T17:04:46;6.37;;;2.60;;
14125;SDS011;7141;49.484;11.242;2022-09-27T17:07:12;3.40;;;1.70;;
14125;SDS011;7141;49.484;11.242;2022-09-27T17:09:38;6.27;;;2.53;;
14125;SDS011;7141;49.484;11.242;2022-09-27T17:12:04;9.67;;;2.13;;
14125;SDS011;7141;49.484;11.242;2022-09-27T17:14:30;6.13;;;1.60;;
14125;SDS011;7141;49.484;11.242;2022-09-27T17:16:56;1.53;;;1.43;;
14125;SDS011;7141;49.484;11.242;2022-09-27T17:19:22;1.20;;;1.00;;
14125;SDS011;7141;49.484;11.242;2022-09-27T17:21:49;1.77;;;1.30;;
14125;SDS011;7141;49.484;11.242;2022-09-27T17:24:15;4.07;;;1.50;;
14125;SDS011;7141;49.484;11.242;2022-09-27T17:26:41;5.70;;;1.70;;
14125;SDS011;7141;49.484;11.242;2022-09-27T17:29:10;3.63;;;2.03;;
14125;SDS011;7141;49.484;11.242;2022-09-27T17:31:37;3.33;;;1.40;;
14125;SDS011;7141;49.484;11.242;2022-09-27T17:34:04;2.97;;;1.30;;